Overton RPC :: 100A - Nashville

liberation: 2020-10-17  08:30     latitude: 36.107992     longitude: -86.925452 35 birds
# LOFT PRING MILES ARRIVAL SPEED ToWin
1 LET IT GO LOFT IF20-ORP-0112 116.642 2020-10-17 11:22:15.649 1191.738 00:00:00
2 LET IT GO LOFT IF20-VALH-0092 116.642 2020-10-17 11:26:09.241 1165.400 00:03:54
3 VALHALLA LOFTS IF20-ORP-0022 93.284 2020-10-17 10:50:54.473 1165.163 00:03:09
4 VALHALLA LOFTS IF20-VALH-0021 93.284 2020-10-17 10:50:56.334 1164.906 00:03:10
5 VALHALLA LOFTS IF20-VALH-0018 93.284 2020-10-17 10:51:08.662 1163.211 00:03:23
6 VALHALLA LOFTS IF20-VALH-0013 93.284 2020-10-17 10:51:09.642 1163.076 00:03:24
7 VALHALLA LOFTS IF20-VALH-0045 93.284 2020-10-17 10:51:09.950 1163.034 00:03:24
8 VALHALLA LOFTS IF20-VALH-0066 93.284 2020-10-17 10:51:12.648 1162.663 00:03:27
9 VALHALLA LOFTS IF20-VALH-0098 93.284 2020-10-17 10:51:13.739 1162.514 00:03:28
10 VALHALLA LOFTS IF20-VALH-0077 93.284 2020-10-17 10:51:18.626 1161.844 00:03:33
11 VALHALLA LOFTS IF20-VALH-0088 93.284 2020-10-17 10:51:20.696 1161.560 00:03:35
12 VALHALLA LOFTS IF20-VALH-0087 93.284 2020-10-17 10:51:29.065 1160.415 00:03:43
13 VALHALLA LOFTS IF20-VALH-0100 93.284 2020-10-17 10:51:29.405 1160.368 00:03:43
14 VALHALLA LOFTS IF20-VALH-0044 93.284 2020-10-17 10:51:30.318 1160.244 00:03:44
15 VALHALLA LOFTS IF20-ORP-0021 93.284 2020-10-17 10:51:32.729 1159.914 00:03:47
16 VALHALLA LOFTS IF20-VALH-0005 93.284 2020-10-17 10:51:42.927 1158.523 00:03:57
17 VALHALLA LOFTS IF20-VALH-0093 93.284 2020-10-17 10:51:44.327 1158.332 00:03:58
18 VALHALLA LOFTS IF20-VALH-0040 93.284 2020-10-17 10:51:46.476 1158.040 00:04:01
19 VALHALLA LOFTS IF20-ORP-0005 93.284 2020-10-17 10:51:47.412 1157.912 00:04:01
20 VALHALLA LOFTS IF20-VALH-0027 93.284 2020-10-17 10:51:50.328 1157.516 00:04:04
21 VALHALLA LOFTS IF20-VALH-0023 93.284 2020-10-17 10:52:16.415 1153.978 00:04:30
22 VALHALLA LOFTS IF20-VALH-0031 93.284 2020-10-17 10:52:17.682 1153.807 00:04:32
23 VALHALLA LOFTS IF20-VALH-0094 93.284 2020-10-17 10:52:56.252 1148.618 00:05:10
24 VALHALLA LOFTS IF20-VALH-0085 93.284 2020-10-17 10:52:57.938 1148.392 00:05:12
25 VALHALLA LOFTS IF20-VALH-0089 93.284 2020-10-17 10:52:59.965 1148.121 00:05:14
26 VALHALLA LOFTS IF20-VALH-0096 93.284 2020-10-17 10:53:03.365 1147.666 00:05:17
27 VALHALLA LOFTS IF20-VALH-0029 93.284 2020-10-17 10:53:05.316 1147.405 00:05:19
28 VALHALLA LOFTS IF20-VALH-0030 93.284 2020-10-17 10:53:05.418 1147.392 00:05:19
29 VALHALLA LOFTS IF20-VALH-0025 93.284 2020-10-17 10:53:12.350 1146.466 00:05:26
30 VALHALLA LOFTS IF20-VALH-0022 93.284 2020-10-17 10:53:16.537 1145.908 00:05:31
31 LET IT GO LOFT IF20-ORP-0122 116.642 2020-10-17 12:01:31.408 970.530 00:39:16
32 LET IT GO LOFT IF20-ORP-0106 116.642 2020-10-17 12:05:00.674 954.787 00:42:45
33 VALHALLA LOFTS IF20-VALH-0095 93.284 2020-10-17 11:24:28.179 941.027 00:36:42
34 LET IT GO LOFT IF20-ORP-0126 116.642 2020-10-17 12:31:14.187 850.990 01:08:59
35 LET IT GO LOFT IF20-ORP-0134 116.642 2020-10-17 12:45:30.222 803.471 01:23:15